Richmond, VA (23238)

6:53 PM EDT on March 28, 2015 (GMT -0400)
KVARICHM37 | | Change Station
CLOSE
Current Station
Personal Weather Station
Location: Richmond, VA
Elevation: 200 ft
Nearby Weather Stations

Elev 200 ft 37.63 °N, 77.63 °W | Updated 5 minutes ago

Mostly Cloudy
Mostly Cloudy
35.1 °F
Feels Like 32 °F
N
4.0
Wind Variable Wind from East
Gusts 5.0 mph

Today
High -- | Low -- °F
--% Chance of Precip.
Yesterday
High -- | Low -- °F
Precip. -- in
7:02 AM 7:29 PM
Waxing Gibbous, 66% visible
Pressure 30.09 in
Visibility 10.0 miles
Clouds Mostly Cloudy 8000 ft
Windchill 32 °F
Dew Point 12 °F
Humidity 38%
Rainfall 0.00 in
Snow Depth Not available.
UV 1 out of 12
Pollen 8.90 out of 12
Air Quality Not available.
Flu Activity Not available.
METAR KRIC 282154Z 33015G21KT 10SM BKN080 04/M12 A3007 RMK AO2 SLP188 T00441122

More Conditions Fewer Conditions

Pressure 30.09 in
Visibility 10.0 miles
Clouds Mostly Cloudy 8000 ft
Windchill 32 °F
Dew Point 12 °F
Humidity 38%
Rainfall 0.00 in
Snow Depth Not available.
UV 1 out of 12
Pollen 8.90 out of 12
Air Quality Not available.
Flu Activity Not available.
METAR KRIC 282154Z 33015G21KT 10SM BKN080 04/M12 A3007 RMK AO2 SLP188 T00441122

More Conditions Fewer Conditions

10-Day Weather Forecast

Almanac

Astronomy

Mar. 28, 2015 Rise Set
Actual Time
Civil Twilight
Nautical Twilight
Astronomical Twilight
Moon
Length of Visible Light
Length of Day
Tomorrow will be .
, % of the Moon is Illuminated

Today's Extremes

State Highs State Lows

Community

WunderPhotos

Upload Photos

1,809,117 photos uploaded!

WunderBlogs® & News

Nearby

Air Quality

  Air Quality AQ Index Pollutant
Not available.

Snow Depth

Station Depth Elevation

Earthquake Activity

City Distance Mag. Time & Date
Minimum magnitude displayed is 2.5.

Coastal Water Temperatures

Place Temperature

Stations

Nearby Weather Stations

Station Location Temp. Windchill Dew Point Humidity Wind Precip. Elev Updated Type